Vermillion, Minnesota
Current Conditions -  °F | °C
As of 3:30 PM on Monday 24 Nov 2014 (Local Time) from KSGS Reporting Station
Overcast Overcast  
Wind Chill:   Ceiling: 2300
Heat Index: 21°   Visibility: 10mi
Dew Point: 14°   Wind: 17mph
Humidity: 74%   Direction: 310°NW
Pressure: 29.59"   Gusts: 24mph
Location:  44.67°N, 92.97°W
Report Text: KSGS 242130Z AUTO 31015G21KT 10SM BKN023 OVC050 M06/M10 A2959 RMK AO2 T10591098
Loading
Personal Weather Stations






























Interactive Weather Map New forecast layout! Learn more

10-Day Weather Forecast

Advertisements
Track Severe Weather on mobile